createdAt,value
2023-05-14T00:01:13.209Z,10.04
2023-05-14T00:03:41.136Z,9.94
2023-05-14T00:06:09.686Z,9.88
2023-05-14T00:08:36.751Z,9.74
2023-05-14T00:11:04.039Z,9.71
2023-05-14T00:13:31.071Z,9.64
2023-05-14T00:15:58.228Z,9.69
2023-05-14T00:18:25.667Z,9.67
2023-05-14T00:20:54.958Z,9.67
2023-05-14T00:23:22.688Z,9.64
2023-05-14T00:25:51.021Z,9.57
2023-05-14T00:28:18.073Z,9.56
2023-05-14T00:30:45.349Z,9.57
2023-05-14T00:33:12.613Z,9.58
2023-05-14T00:35:39.945Z,9.58
2023-05-14T00:38:06.932Z,9.61
2023-05-14T00:40:34.752Z,9.54
2023-05-14T00:43:01.886Z,9.51
2023-05-14T00:45:29.224Z,9.46
2023-05-14T00:47:56.730Z,9.40
2023-05-14T00:50:24.166Z,9.35
2023-05-14T00:52:51.529Z,9.39
2023-05-14T00:55:19.153Z,9.38
2023-05-14T00:57:46.473Z,9.34
2023-05-14T01:00:14.843Z,9.29
2023-05-14T01:02:42.242Z,9.28
2023-05-14T01:05:09.652Z,9.25
2023-05-14T01:07:40.448Z,9.23
2023-05-14T01:10:19.958Z,9.22
2023-05-14T01:13:14.040Z,9.29
2023-05-14T01:15:42.210Z,9.23
2023-05-14T01:18:11.261Z,9.25
2023-05-14T01:20:38.424Z,9.25
2023-05-14T01:23:08.303Z,9.22
2023-05-14T01:25:35.599Z,9.23
2023-05-14T01:28:11.479Z,9.23
2023-05-14T01:30:58.625Z,9.25
2023-05-14T01:33:27.873Z,9.24
2023-05-14T01:35:55.406Z,9.22
2023-05-14T01:38:23.799Z,9.19
2023-05-14T01:40:51.122Z,9.22
2023-05-14T01:43:19.376Z,9.16
2023-05-14T01:45:46.778Z,9.14
2023-05-14T01:48:14.693Z,9.16
2023-05-14T01:50:42.302Z,9.20
2023-05-14T01:53:09.569Z,9.16
2023-05-14T01:55:36.668Z,9.23
2023-05-14T01:58:04.215Z,9.20
2023-05-14T02:00:31.988Z,9.25
2023-05-14T02:02:59.685Z,9.27
2023-05-14T02:05:26.710Z,9.20
2023-05-14T02:07:54.487Z,9.26
2023-05-14T02:10:22.281Z,9.27
2023-05-14T02:12:49.989Z,9.27
2023-05-14T02:15:17.137Z,9.33
2023-05-14T02:17:45.708Z,9.35
2023-05-14T02:20:13.489Z,9.35
2023-05-14T02:22:45.509Z,9.46
2023-05-14T02:25:12.960Z,9.44
2023-05-14T02:27:40.645Z,9.48
2023-05-14T02:30:08.709Z,9.40
2023-05-14T02:32:36.312Z,9.42
2023-05-14T02:35:03.497Z,9.38
2023-05-14T02:37:30.579Z,9.36
2023-05-14T02:39:57.965Z,9.37
2023-05-14T02:42:25.332Z,9.38
2023-05-14T02:44:52.391Z,9.47
2023-05-14T02:47:19.805Z,9.43
2023-05-14T02:49:46.905Z,9.47
2023-05-14T02:52:14.052Z,9.45
2023-05-14T02:54:41.483Z,9.47
2023-05-14T02:57:08.973Z,9.49
2023-05-14T02:59:36.453Z,9.47
2023-05-14T03:02:04.469Z,9.40
2023-05-14T03:04:32.692Z,9.39
2023-05-14T03:06:59.770Z,9.31
2023-05-14T03:09:27.129Z,9.28
2023-05-14T03:11:55.071Z,9.23
2023-05-14T03:14:22.777Z,9.23
2023-05-14T03:16:50.247Z,9.22
2023-05-14T03:19:18.138Z,9.18
2023-05-14T03:21:45.715Z,9.24
2023-05-14T03:24:13.147Z,9.26
2023-05-14T03:26:40.262Z,9.19
2023-05-14T03:29:07.707Z,9.22
2023-05-14T03:31:35.108Z,9.27
2023-05-14T03:34:02.246Z,9.28
2023-05-14T03:36:29.290Z,9.29
2023-05-14T03:38:56.895Z,9.36
2023-05-14T03:41:24.117Z,9.37
2023-05-14T03:43:51.539Z,9.39
2023-05-14T03:46:18.819Z,9.42
2023-05-14T03:48:46.197Z,9.40
2023-05-14T03:51:13.457Z,9.40
2023-05-14T03:53:41.360Z,9.44
2023-05-14T03:56:08.452Z,9.48
2023-05-14T03:58:36.165Z,9.48
2023-05-14T04:01:03.620Z,9.52
2023-05-14T04:03:31.321Z,9.56
2023-05-14T04:05:58.687Z,9.61
2023-05-14T04:08:25.794Z,9.60
2023-05-14T04:10:53.805Z,9.58
2023-05-14T04:13:23.168Z,9.58
2023-05-14T04:15:51.640Z,9.61
2023-05-14T04:18:18.962Z,9.59
2023-05-14T04:20:45.982Z,9.59
2023-05-14T04:23:12.961Z,9.62
2023-05-14T04:25:40.252Z,9.64
2023-05-14T04:28:07.313Z,9.59
2023-05-14T04:30:34.381Z,9.55
2023-05-14T04:33:03.062Z,9.62
2023-05-14T04:35:30.103Z,9.63
2023-05-14T04:37:57.110Z,9.62
2023-05-14T04:40:24.762Z,9.60
2023-05-14T04:42:52.227Z,9.63
2023-05-14T04:45:19.226Z,9.66
2023-05-14T04:47:46.769Z,9.68
2023-05-14T04:50:14.284Z,9.59
2023-05-14T04:52:41.371Z,9.69
2023-05-14T04:55:11.528Z,9.68
2023-05-14T04:57:38.529Z,9.71
2023-05-14T05:00:06.169Z,9.65
2023-05-14T05:02:34.813Z,9.73
2023-05-14T05:05:03.757Z,9.75
2023-05-14T05:07:30.909Z,9.67
2023-05-14T05:09:58.506Z,9.71
2023-05-14T05:12:32.205Z,9.66
2023-05-14T05:14:59.535Z,9.68
2023-05-14T05:17:26.578Z,9.63
2023-05-14T05:19:53.599Z,9.65
2023-05-14T05:22:20.941Z,9.70
2023-05-14T05:24:49.807Z,9.72
2023-05-14T05:27:17.122Z,9.74
2023-05-14T05:29:44.730Z,9.81
2023-05-14T05:32:11.766Z,9.79
2023-05-14T05:34:38.936Z,9.81
2023-05-14T05:37:06.291Z,9.82
2023-05-14T05:39:34.993Z,9.96
2023-05-14T05:42:02.750Z,9.91
2023-05-14T05:44:30.940Z,9.98
2023-05-14T05:46:58.168Z,9.98
2023-05-14T05:49:25.261Z,10.07
2023-05-14T05:51:52.777Z,10.00
2023-05-14T05:54:19.754Z,9.99
2023-05-14T05:56:46.759Z,9.96
2023-05-14T05:59:14.005Z,9.99
2023-05-14T06:01:41.604Z,9.84
2023-05-14T06:04:09.439Z,9.89
2023-05-14T06:06:37.198Z,9.91
2023-05-14T06:09:04.741Z,9.98
2023-05-14T06:11:32.049Z,10.04
2023-05-14T06:13:59.021Z,10.04
2023-05-14T06:16:26.365Z,9.99
2023-05-14T06:18:54.956Z,9.83
2023-05-14T06:21:21.965Z,9.85
2023-05-14T06:23:48.969Z,9.95
2023-05-14T06:26:16.312Z,9.85
2023-05-14T06:28:43.339Z,9.93
2023-05-14T06:31:10.431Z,9.72
2023-05-14T06:33:37.750Z,9.74
2023-05-14T06:36:05.834Z,9.76
2023-05-14T06:38:32.978Z,9.79
2023-05-14T06:41:00.343Z,9.82
2023-05-14T06:43:27.559Z,9.73
2023-05-14T06:45:54.867Z,9.76
2023-05-14T06:48:22.961Z,9.71
2023-05-14T06:50:50.204Z,9.77
2023-05-14T06:53:17.518Z,9.72
2023-05-14T06:55:45.061Z,9.84
2023-05-14T06:58:12.157Z,9.79
2023-05-14T07:00:39.909Z,9.86
2023-05-14T07:03:07.401Z,9.91
2023-05-14T07:05:34.645Z,9.90
2023-05-14T07:08:01.751Z,9.91
2023-05-14T07:10:29.139Z,10.19
2023-05-14T07:12:56.502Z,10.19
2023-05-14T07:15:23.834Z,10.27
2023-05-14T07:17:51.212Z,10.42
2023-05-14T07:20:18.269Z,10.38
2023-05-14T07:22:45.358Z,10.49
2023-05-14T07:25:12.720Z,10.46
2023-05-14T07:27:39.794Z,10.54
2023-05-14T07:30:07.865Z,10.70
2023-05-14T07:32:35.570Z,10.95
2023-05-14T07:35:02.775Z,11.13
2023-05-14T07:37:29.816Z,11.22
2023-05-14T07:39:57.208Z,11.12
2023-05-14T07:42:35.383Z,11.33
2023-05-14T07:45:04.298Z,11.23
2023-05-14T07:47:31.612Z,11.31
2023-05-14T07:49:59.299Z,11.50
2023-05-14T07:52:26.726Z,11.51
2023-05-14T07:54:53.764Z,11.55
2023-05-14T07:57:22.052Z,11.61
2023-05-14T07:59:49.821Z,11.65
2023-05-14T08:02:17.592Z,11.56
2023-05-14T08:04:46.500Z,11.67
2023-05-14T08:07:13.804Z,11.54
2023-05-14T08:09:41.093Z,11.57
2023-05-14T08:12:08.614Z,11.59
2023-05-14T08:14:35.719Z,11.53
2023-05-14T08:17:03.451Z,11.44
2023-05-14T08:19:31.238Z,11.79
2023-05-14T08:21:58.297Z,11.68
2023-05-14T08:24:26.070Z,11.66
2023-05-14T08:26:53.331Z,11.85
2023-05-14T08:29:20.704Z,11.66
2023-05-14T08:31:49.477Z,11.71
2023-05-14T08:34:17.230Z,11.87
2023-05-14T08:36:44.406Z,11.87
2023-05-14T08:39:11.626Z,11.84
2023-05-14T08:41:40.099Z,11.85
2023-05-14T08:44:12.569Z,12.07
2023-05-14T08:46:40.349Z,11.98
2023-05-14T08:49:42.059Z,12.20
2023-05-14T08:52:10.189Z,12.18
2023-05-14T08:54:37.500Z,12.11
2023-05-14T08:57:05.531Z,12.29
2023-05-14T08:59:32.998Z,12.11
2023-05-14T09:02:02.765Z,12.11
2023-05-14T09:04:30.108Z,11.97
2023-05-14T09:06:57.543Z,11.87
2023-05-14T09:09:24.962Z,12.06
2023-05-14T09:11:52.794Z,12.05
2023-05-14T09:14:20.758Z,12.11
2023-05-14T09:16:49.938Z,11.92
2023-05-14T09:19:19.626Z,11.70
2023-05-14T09:21:48.666Z,11.69
2023-05-14T09:24:24.158Z,11.76
2023-05-14T09:26:56.538Z,11.83
2023-05-14T09:29:27.939Z,11.89
2023-05-14T09:31:56.802Z,11.98
2023-05-14T09:34:29.201Z,12.01
2023-05-14T09:37:02.451Z,11.98
2023-05-14T09:39:30.113Z,11.82
2023-05-14T09:41:57.721Z,11.77
2023-05-14T09:44:25.573Z,11.70
2023-05-14T09:46:53.436Z,11.62
2023-05-14T09:49:21.244Z,11.76
2023-05-14T09:51:51.333Z,11.68
2023-05-14T09:54:18.526Z,11.64
2023-05-14T09:56:48.187Z,11.70
2023-05-14T09:59:15.339Z,11.67
2023-05-14T10:01:43.432Z,11.65
2023-05-14T10:04:11.442Z,11.67
2023-05-14T10:06:39.727Z,11.75
2023-05-14T10:09:13.715Z,11.74
2023-05-14T10:11:44.071Z,11.79
2023-05-14T10:14:18.899Z,11.81
2023-05-14T10:16:51.469Z,11.72
2023-05-14T10:19:20.875Z,11.82
2023-05-14T10:21:53.457Z,12.06
2023-05-14T10:24:20.834Z,12.23
2023-05-14T10:26:48.218Z,12.27
2023-05-14T10:29:17.141Z,12.20
2023-05-14T10:31:55.477Z,12.09
2023-05-14T10:34:40.835Z,11.97
2023-05-14T10:37:11.774Z,11.92
2023-05-14T10:39:51.070Z,11.95
2023-05-14T10:42:27.095Z,11.94
2023-05-14T10:44:58.516Z,11.78
2023-05-14T10:47:27.064Z,11.69
2023-05-14T10:49:57.794Z,11.71
2023-05-14T10:52:25.789Z,11.67
2023-05-14T10:54:55.161Z,11.76
2023-05-14T10:57:24.648Z,11.91
2023-05-14T10:59:59.947Z,11.90
2023-05-14T11:02:33.138Z,11.79
2023-05-14T11:05:05.565Z,11.86
2023-05-14T11:07:44.720Z,11.65
2023-05-14T11:10:12.696Z,11.63
2023-05-14T11:12:53.313Z,11.60
2023-05-14T11:15:26.979Z,11.62
2023-05-14T11:17:55.088Z,11.47
2023-05-14T11:20:22.490Z,11.46
2023-05-14T11:22:51.720Z,11.50
2023-05-14T11:25:19.209Z,11.57
2023-05-14T11:27:48.016Z,11.60
2023-05-14T11:30:19.932Z,11.59
2023-05-14T11:32:48.873Z,11.56
2023-05-14T11:35:16.996Z,11.62
2023-05-14T11:37:51.464Z,11.51
2023-05-14T11:40:19.353Z,11.53
2023-05-14T11:42:47.556Z,11.56
2023-05-14T11:45:25.358Z,11.58
2023-05-14T11:47:54.095Z,11.61
2023-05-14T11:50:22.594Z,11.55
2023-05-14T11:52:50.893Z,11.54
2023-05-14T11:55:18.391Z,11.35
2023-05-14T11:57:45.468Z,11.29
2023-05-14T12:00:21.464Z,11.36
2023-05-14T12:02:50.297Z,11.46
2023-05-14T12:05:19.336Z,11.45
2023-05-14T12:07:47.327Z,11.56
2023-05-14T12:10:14.942Z,11.46
2023-05-14T12:12:46.075Z,11.39
2023-05-14T12:15:14.458Z,11.47
2023-05-14T12:17:42.183Z,11.57
2023-05-14T12:20:11.043Z,11.54
2023-05-14T12:22:38.691Z,11.60
2023-05-14T12:25:12.393Z,11.46
2023-05-14T12:27:39.396Z,11.46
2023-05-14T12:30:19.811Z,11.48
2023-05-14T12:32:48.944Z,11.36
2023-05-14T12:35:16.651Z,11.34
2023-05-14T12:37:43.727Z,11.34
2023-05-14T12:40:11.570Z,11.26
2023-05-14T12:42:38.993Z,11.14
2023-05-14T12:45:08.467Z,11.01
2023-05-14T12:47:36.886Z,11.03
2023-05-14T12:50:05.950Z,11.04
2023-05-14T12:52:38.850Z,11.00
2023-05-14T12:55:08.808Z,10.93
2023-05-14T12:57:36.971Z,10.93
2023-05-14T13:00:07.064Z,10.96
2023-05-14T13:02:42.021Z,11.02
2023-05-14T13:05:09.775Z,11.05
2023-05-14T13:07:37.334Z,10.98
2023-05-14T13:10:08.240Z,11.06
2023-05-14T13:12:35.589Z,11.02
2023-05-14T13:15:02.950Z,11.07
2023-05-14T13:17:30.398Z,11.04
2023-05-14T13:19:57.426Z,11.02
2023-05-14T13:22:24.771Z,10.95
2023-05-14T13:24:51.926Z,10.95
2023-05-14T13:27:19.469Z,11.00
2023-05-14T13:29:46.773Z,11.08
2023-05-14T13:32:13.858Z,10.99
2023-05-14T13:34:41.882Z,10.96
2023-05-14T13:37:09.162Z,10.86
2023-05-14T13:39:36.150Z,10.81
2023-05-14T13:42:03.294Z,10.77
2023-05-14T13:44:30.816Z,10.70
2023-05-14T13:46:57.820Z,10.70
2023-05-14T13:49:24.897Z,10.67
2023-05-14T13:51:52.793Z,10.69
2023-05-14T13:54:19.785Z,10.73
2023-05-14T13:56:46.802Z,10.75
2023-05-14T13:59:14.677Z,10.87
2023-05-14T14:01:43.314Z,10.82
2023-05-14T14:04:11.024Z,10.80
2023-05-14T14:06:38.659Z,10.83
2023-05-14T14:09:05.638Z,10.80
2023-05-14T14:11:32.938Z,10.88
2023-05-14T14:13:59.932Z,10.84
2023-05-14T14:16:27.017Z,10.87
2023-05-14T14:18:54.328Z,10.93
2023-05-14T14:21:21.408Z,10.97
2023-05-14T14:23:48.992Z,10.98
2023-05-14T14:26:17.323Z,10.99
2023-05-14T14:28:44.318Z,10.95
2023-05-14T14:31:11.623Z,10.96
2023-05-14T14:33:39.140Z,10.92
2023-05-14T14:36:07.038Z,10.88
2023-05-14T14:38:34.037Z,10.87
2023-05-14T14:41:04.439Z,10.87
2023-05-14T14:43:31.734Z,10.87
2023-05-14T14:45:58.757Z,10.90
2023-05-14T14:48:31.795Z,10.91
2023-05-14T14:50:59.112Z,10.91
2023-05-14T14:53:27.016Z,10.94
2023-05-14T14:55:54.125Z,10.95
2023-05-14T14:58:22.580Z,10.82
2023-05-14T15:00:52.720Z,10.82
2023-05-14T15:03:20.554Z,10.73
2023-05-14T15:05:48.215Z,10.69
2023-05-14T15:08:15.765Z,10.59
2023-05-14T15:10:43.112Z,10.66
2023-05-14T15:13:11.324Z,10.59
2023-05-14T15:15:39.227Z,10.56
2023-05-14T15:18:06.365Z,10.64
2023-05-14T15:20:33.513Z,10.55
2023-05-14T15:23:01.006Z,10.57
2023-05-14T15:25:28.574Z,10.55
2023-05-14T15:27:55.673Z,10.54
2023-05-14T15:30:23.102Z,10.58
2023-05-14T15:32:50.283Z,10.48
2023-05-14T15:35:20.057Z,10.41
2023-05-14T15:37:47.412Z,10.47
2023-05-14T15:40:14.526Z,10.44
2023-05-14T15:42:42.692Z,10.43
2023-05-14T15:45:13.642Z,10.39
2023-05-14T15:47:41.484Z,10.37
2023-05-14T15:50:09.690Z,10.39
2023-05-14T15:52:37.409Z,10.35
2023-05-14T15:55:06.631Z,10.35
2023-05-14T15:57:34.365Z,10.36
2023-05-14T16:00:02.096Z,10.42
2023-05-14T16:02:33.315Z,10.39
2023-05-14T16:05:00.783Z,10.35
2023-05-14T16:07:28.176Z,10.36
2023-05-14T16:09:55.482Z,10.41
2023-05-14T16:12:22.790Z,10.44
2023-05-14T16:14:50.236Z,10.39
2023-05-14T16:17:17.339Z,10.34
2023-05-14T16:19:44.773Z,10.37
2023-05-14T16:22:11.912Z,10.36
2023-05-14T16:24:39.026Z,10.34
2023-05-14T16:27:06.571Z,10.38
2023-05-14T16:29:33.677Z,10.35
2023-05-14T16:32:00.791Z,10.37
2023-05-14T16:34:28.315Z,10.37
2023-05-14T16:36:55.341Z,10.34
2023-05-14T16:39:22.383Z,10.37
2023-05-14T16:41:49.750Z,10.42
2023-05-14T16:44:16.850Z,10.36
2023-05-14T16:46:45.127Z,10.37
2023-05-14T16:49:12.523Z,10.36
2023-05-14T16:51:43.049Z,10.33
2023-05-14T16:54:10.147Z,10.33
2023-05-14T16:56:37.649Z,10.37
2023-05-14T16:59:04.847Z,10.29
2023-05-14T17:01:33.091Z,10.32
2023-05-14T17:04:00.625Z,10.31
2023-05-14T17:06:27.648Z,10.33
2023-05-14T17:08:54.684Z,10.36
2023-05-14T17:11:21.984Z,10.37
2023-05-14T17:13:48.972Z,10.33
2023-05-14T17:16:16.422Z,10.30
2023-05-14T17:18:45.676Z,10.30
2023-05-14T17:21:12.759Z,10.32
2023-05-14T17:23:39.771Z,10.30
2023-05-14T17:26:07.288Z,10.28
2023-05-14T17:28:34.379Z,10.29
2023-05-14T17:31:02.532Z,10.32
2023-05-14T17:33:30.151Z,10.29
2023-05-14T17:35:57.324Z,10.35
2023-05-14T17:38:24.558Z,10.35
2023-05-14T17:40:52.221Z,10.39
2023-05-14T17:43:19.286Z,10.37
2023-05-14T17:45:53.757Z,10.32
2023-05-14T17:48:22.747Z,10.41
2023-05-14T17:50:51.574Z,10.42
2023-05-14T17:53:19.426Z,10.44
2023-05-14T17:55:46.861Z,10.55
2023-05-14T17:58:15.477Z,10.56
2023-05-14T18:00:43.497Z,10.55
2023-05-14T18:03:11.580Z,10.57
2023-05-14T18:05:39.338Z,10.58
2023-05-14T18:08:06.593Z,10.46
2023-05-14T18:10:34.063Z,10.40
2023-05-14T18:13:01.464Z,10.46
2023-05-14T18:15:31.453Z,10.48
2023-05-14T18:17:59.164Z,10.47
2023-05-14T18:20:26.585Z,10.52
2023-05-14T18:22:53.734Z,10.55
2023-05-14T18:25:21.115Z,10.55
2023-05-14T18:27:48.654Z,10.51
2023-05-14T18:30:17.118Z,10.51
2023-05-14T18:32:45.108Z,10.46
2023-05-14T18:35:13.217Z,10.50
2023-05-14T18:37:40.856Z,10.56
2023-05-14T18:40:08.855Z,10.57
2023-05-14T18:42:35.912Z,10.56
2023-05-14T18:45:04.205Z,10.54
2023-05-14T18:47:33.000Z,10.60
2023-05-14T18:50:02.119Z,10.55
2023-05-14T18:52:29.331Z,10.58
2023-05-14T18:54:56.812Z,10.54
2023-05-14T18:57:26.904Z,10.59
2023-05-14T18:59:53.873Z,10.55
2023-05-14T19:02:21.299Z,10.59
2023-05-14T19:04:52.629Z,10.57
2023-05-14T19:07:21.229Z,10.51
2023-05-14T19:09:48.568Z,10.59
2023-05-14T19:12:16.118Z,10.58
2023-05-14T19:14:43.861Z,10.60
2023-05-14T19:17:11.028Z,10.58
2023-05-14T19:19:39.282Z,10.58
2023-05-14T19:22:07.363Z,10.55
2023-05-14T19:24:34.510Z,10.63
2023-05-14T19:27:01.636Z,10.68
2023-05-14T19:29:28.964Z,10.59
2023-05-14T19:31:56.037Z,10.66
2023-05-14T19:34:23.238Z,10.61
2023-05-14T19:36:50.740Z,10.64
2023-05-14T19:39:17.834Z,10.64
2023-05-14T19:41:45.086Z,10.68
2023-05-14T19:44:12.502Z,10.64
2023-05-14T19:46:39.695Z,10.64
2023-05-14T19:49:06.850Z,10.70
2023-05-14T19:51:34.309Z,10.76
2023-05-14T19:54:01.377Z,10.73
2023-05-14T19:56:28.501Z,10.68
2023-05-14T19:58:56.670Z,10.68
2023-05-14T20:01:26.904Z,10.79
2023-05-14T20:03:54.238Z,10.78
2023-05-14T20:06:21.253Z,10.81
2023-05-14T20:08:48.293Z,10.85
2023-05-14T20:11:17.932Z,10.83
2023-05-14T20:13:45.302Z,10.88
2023-05-14T20:16:13.559Z,10.90
2023-05-14T20:18:41.827Z,10.87
2023-05-14T20:21:09.142Z,10.87
2023-05-14T20:23:36.227Z,10.81
2023-05-14T20:26:04.150Z,10.86
2023-05-14T20:28:31.219Z,10.85
2023-05-14T20:31:02.933Z,10.89
2023-05-14T20:33:30.830Z,10.93
2023-05-14T20:35:57.835Z,10.90
2023-05-14T20:38:25.760Z,10.87
2023-05-14T20:40:53.099Z,10.92
2023-05-14T20:43:20.094Z,10.86
2023-05-14T20:45:47.057Z,10.85
2023-05-14T20:48:16.439Z,10.81
2023-05-14T20:50:44.220Z,10.83
2023-05-14T20:53:11.193Z,10.80
2023-05-14T20:55:39.421Z,10.81
2023-05-14T20:58:06.421Z,10.76
2023-05-14T21:00:34.446Z,10.80
2023-05-14T21:03:01.960Z,10.82
2023-05-14T21:05:29.094Z,10.78
2023-05-14T21:07:56.066Z,10.80
2023-05-14T21:10:23.893Z,10.80
2023-05-14T21:12:51.711Z,10.81
2023-05-14T21:15:18.730Z,10.85
2023-05-14T21:17:46.687Z,10.87
2023-05-14T21:20:15.502Z,10.82
2023-05-14T21:22:42.527Z,10.87
2023-05-14T21:25:10.029Z,10.85
2023-05-14T21:27:37.262Z,10.85
2023-05-14T21:30:04.681Z,10.87
2023-05-14T21:32:32.075Z,10.87
2023-05-14T21:34:59.196Z,10.91
2023-05-14T21:37:26.220Z,10.89
2023-05-14T21:39:53.495Z,10.92
2023-05-14T21:42:21.218Z,10.93
2023-05-14T21:44:48.216Z,10.89
2023-05-14T21:47:16.178Z,10.88
2023-05-14T21:49:43.407Z,10.92
2023-05-14T21:52:10.984Z,10.97
2023-05-14T21:54:38.222Z,10.93
2023-05-14T21:57:05.483Z,10.93
2023-05-14T21:59:33.695Z,10.96
2023-05-14T22:04:31.467Z,11.03
2023-05-14T22:06:58.627Z,11.04
2023-05-14T22:09:25.910Z,11.05
2023-05-14T22:11:53.249Z,10.98
2023-05-14T22:14:20.380Z,11.01
2023-05-14T22:16:47.627Z,11.01
2023-05-14T22:19:16.693Z,11.04
2023-05-14T22:21:43.852Z,11.05
2023-05-14T22:24:10.912Z,11.05
2023-05-14T22:26:38.292Z,11.03
2023-05-14T22:29:05.841Z,10.98
2023-05-14T22:31:32.963Z,11.10
2023-05-14T22:34:00.766Z,11.02
2023-05-14T22:36:27.882Z,11.12
2023-05-14T22:38:55.083Z,11.04
2023-05-14T22:41:22.544Z,11.08
2023-05-14T22:43:50.419Z,11.04
2023-05-14T22:46:17.532Z,11.13
2023-05-14T22:48:45.209Z,11.10
2023-05-14T22:51:12.595Z,11.09
2023-05-14T22:53:39.756Z,11.08
2023-05-14T22:56:08.523Z,11.15
2023-05-14T22:58:35.721Z,11.10
2023-05-14T23:01:03.870Z,11.06
2023-05-14T23:03:31.257Z,11.04
2023-05-14T23:05:58.468Z,11.04
2023-05-14T23:08:25.619Z,11.03
2023-05-14T23:10:53.046Z,11.05
2023-05-14T23:13:20.240Z,11.06
2023-05-14T23:15:47.429Z,11.02
2023-05-14T23:18:14.961Z,10.95
2023-05-14T23:20:42.179Z,11.03
2023-05-14T23:23:09.244Z,10.99
2023-05-14T23:25:36.689Z,11.00
2023-05-14T23:28:03.760Z,11.01
2023-05-14T23:30:30.980Z,11.02
2023-05-14T23:32:58.492Z,10.98
2023-05-14T23:35:25.968Z,11.00
2023-05-14T23:37:55.136Z,10.99
2023-05-14T23:40:23.260Z,10.96
2023-05-14T23:42:50.669Z,11.01
2023-05-14T23:45:17.672Z,10.99
2023-05-14T23:47:45.055Z,10.99
2023-05-14T23:50:12.170Z,10.99
2023-05-14T23:52:39.220Z,11.01
2023-05-14T23:55:06.848Z,10.96
2023-05-14T23:57:33.933Z,10.91
